Explorer Of The Seas — C6SE4 — position and weather

sailwx.info

Track history (hours):
 
Tides and Currents Weather Stations Pressure Air Temp Water Temp Dewpoint Dewpoint Depression Visibility Wind Speed Wind Dir Waves Ship Positions

Explorer Of The Seas

Operator: Royal Caribbean Cruises Ltd

Last reported at 2018-Nov-10 18:00 UTC. Time now 2018-Nov-13 07:33 UTC.
Position S 29°42' E 169°12'.

Length 311 m; draft 9.1 m.

Type: Passenger vessel. MMSI: 311316000.

Wind from 090 at 22 knots

Barometer 1011.7 mb
Air temperature 21.1 ° C
Visibility: greater than 10.8 NM
Dewpoint 21.1 ° C
Water temperature 24.4 ° C

Date/timePositionNaut miles runAvg speedWind from/ knotsBaromVisibWave heightAir tempDewpointWater temp
2018-Nov-10 18:00S 29°42' E 169°12'45719.2 090 / 221011.710.8 21.121.124.4
2018-Nov-09 18:11S 22°24' E 166°47'316.0
2018-Nov-09 18:01S 22°24' E 166°44'816.9
2018-Nov-09 17:32S 22°26' E 166°36'816.6
2018-Nov-09 17:02S 22°31' E 166°28'714.3
2018-Nov-09 16:32S 22°33' E 166°21'26718.4
2018-Nov-09 02:00S 25°24' E 162°36'16420.5 130 / 101013.010.8 21.520.123.4
2018-Nov-08 18:00S 27°12' E 160°18'2814.0 170 / 341014.1 5.4 17.617.622.4
2018-Nov-08 16:00S 27°30' E 159°54'27319.5 180 / 281013.810.8 17.516.722.1
2018-Nov-08 02:00S 30°24' E 155°54'14418.0 190 / 281010.5 5.4 15.515.221.0
2018-Nov-07 18:00S 32°00' E 153°48'5116.9 200 / 401005.0 5.4 16.116.122.3
2018-Nov-07 15:00S 32°36' E 153°06'5328.1 230 / 241004.6 5.4 16.714.622.1
2018-Nov-07 14:59S 32°40' E 153°02'1217.6
2018-Nov-07 14:16S 32°48' E 152°51'717.8
2018-Nov-07 13:53S 32°53' E 152°45'617.8
2018-Nov-07 13:32S 32°57' E 152°40'917.7
2018-Nov-07 13:02S 33°04' E 152°32'917.6
2018-Nov-07 12:32S 33°09' E 152°24'917.7
2018-Nov-07 12:02S 33°14' E 152°15'1018.1
2018-Nov-07 11:28S 33°19' E 152°05'1818.2
2018-Nov-07 10:30S 33°31' E 151°48'818.1
2018-Nov-07 10:02S 33°36' E 151°41'918.0
2018-Nov-07 09:32S 33°42' E 151°33'917.8
2018-Nov-07 09:02S 33°48' E 151°25'713.1
2018-Nov-07 08:32S 33°50' E 151°17'4 6.0
2018-Nov-07 07:50S 33°52' E 151°13'0 0.0
2018-Nov-07 07:24S 33°52' E 151°13'0 0.0
2018-Nov-07 06:57S 33°52' E 151°13'0 0.0
2018-Nov-07 05:06S 33°52' E 151°13'0 0.0
2018-Nov-06 19:51S 33°52' E 151°13'0 0.6
2018-Nov-06 19:12S 33°51' E 151°13'2 5.5
2018-Nov-06 18:54S 33°51' E 151°15'4 9.3
2018-Nov-06 18:30S 33°50' E 151°19'613.1
2018-Nov-06 18:03S 33°48' E 151°26'117.7
2018-Nov-06 18:00S 33°47' E 151°26'918.0
2018-Nov-06 17:30S 33°42' E 151°35'817.9
2018-Nov-06 17:03S 33°37' E 151°43'117.9
2018-Nov-06 17:00S 33°36' E 151°43'1019.1
2018-Nov-06 16:30S 33°30' E 151°53'919.7
2018-Nov-06 16:03S 33°25' E 152°01'120.6
2018-Nov-06 15:59S 33°24' E 152°02'1521.1
2018-Nov-06 15:17S 33°15' E 152°16'521.4
2018-Nov-06 15:03S 33°12' E 152°21'122.7
2018-Nov-06 15:00S 33°11' E 152°22'1622.8
2018-Nov-06 14:19S 33°02' E 152°37'622.4
2018-Nov-06 14:02S 32°58' E 152°43'020.9
2018-Nov-06 14:01S 32°57' E 152°43'1122.2
2018-Nov-06 13:30S 32°50' E 152°54'1022.9
2018-Nov-06 13:03S 32°44' E 153°04'123.0
2018-Nov-06 13:00S 32°44' E 153°05'1122.7
2018-Nov-06 12:30S 32°37' E 153°16'1022.5
2018-Nov-06 12:03S 32°31' E 153°25'122.1
2018-Nov-06 12:00S 32°30' E 153°26'1121.1
2018-Nov-06 11:30S 32°23' E 153°36'920.9
2018-Nov-06 11:03S 32°18' E 153°45'120.8
2018-Nov-06 11:00S 32°17' E 153°46'1521.0
2018-Nov-06 10:17S 32°08' E 154°00'  
Track history (hours):
 
Tides and Currents Weather Stations Pressure Air Temp Water Temp Dewpoint Dewpoint Depression Visibility Wind Speed Wind Dir Waves Ship Positions

Explorer Of The Seas

Operator: Royal Caribbean Cruises Ltd

Last reported at 2018-Nov-10 18:00 UTC. Time now 2018-Nov-13 07:33 UTC.
Position S 29°42' E 169°12'.

Length 311 m; draft 9.1 m.

Type: Passenger vessel. MMSI: 311316000.

Wind from 090 at 22 knots

Barometer 1011.7 mb
Air temperature 21.1 ° C
Visibility: greater than 10.8 NM
Dewpoint 21.1 ° C
Water temperature 24.4 ° C

Date/timePositionNaut miles runAvg speedWind from/ knotsBaromVisibWave heightAir tempDewpointWater temp
2018-Nov-10 18:00S 29°42' E 169°12'45719.2 090 / 221011.710.8 21.121.124.4
2018-Nov-09 18:11S 22°24' E 166°47'316.0
2018-Nov-09 18:01S 22°24' E 166°44'816.9
2018-Nov-09 17:32S 22°26' E 166°36'816.6
2018-Nov-09 17:02S 22°31' E 166°28'714.3
2018-Nov-09 16:32S 22°33' E 166°21'26718.4
2018-Nov-09 02:00S 25°24' E 162°36'16420.5 130 / 101013.010.8 21.520.123.4
2018-Nov-08 18:00S 27°12' E 160°18'2814.0 170 / 341014.1 5.4 17.617.622.4
2018-Nov-08 16:00S 27°30' E 159°54'27319.5 180 / 281013.810.8 17.516.722.1
2018-Nov-08 02:00S 30°24' E 155°54'14418.0 190 / 281010.5 5.4 15.515.221.0
2018-Nov-07 18:00S 32°00' E 153°48'5116.9 200 / 401005.0 5.4 16.116.122.3
2018-Nov-07 15:00S 32°36' E 153°06'5328.1 230 / 241004.6 5.4 16.714.622.1
2018-Nov-07 14:59S 32°40' E 153°02'1217.6
2018-Nov-07 14:16S 32°48' E 152°51'717.8
2018-Nov-07 13:53S 32°53' E 152°45'617.8
2018-Nov-07 13:32S 32°57' E 152°40'917.7
2018-Nov-07 13:02S 33°04' E 152°32'917.6
2018-Nov-07 12:32S 33°09' E 152°24'917.7
2018-Nov-07 12:02S 33°14' E 152°15'1018.1
2018-Nov-07 11:28S 33°19' E 152°05'1818.2
2018-Nov-07 10:30S 33°31' E 151°48'818.1
2018-Nov-07 10:02S 33°36' E 151°41'918.0
2018-Nov-07 09:32S 33°42' E 151°33'917.8
2018-Nov-07 09:02S 33°48' E 151°25'713.1
2018-Nov-07 08:32S 33°50' E 151°17'4 6.0
2018-Nov-07 07:50S 33°52' E 151°13'0 0.0
2018-Nov-07 07:24S 33°52' E 151°13'0 0.0
2018-Nov-07 06:57S 33°52' E 151°13'0 0.0
2018-Nov-07 05:06S 33°52' E 151°13'0 0.0
2018-Nov-06 19:51S 33°52' E 151°13'0 0.6
2018-Nov-06 19:12S 33°51' E 151°13'2 5.5
2018-Nov-06 18:54S 33°51' E 151°15'4 9.3
2018-Nov-06 18:30S 33°50' E 151°19'613.1
2018-Nov-06 18:03S 33°48' E 151°26'117.7
2018-Nov-06 18:00S 33°47' E 151°26'918.0
2018-Nov-06 17:30S 33°42' E 151°35'817.9
2018-Nov-06 17:03S 33°37' E 151°43'117.9
2018-Nov-06 17:00S 33°36' E 151°43'1019.1
2018-Nov-06 16:30S 33°30' E 151°53'919.7
2018-Nov-06 16:03S 33°25' E 152°01'120.6
2018-Nov-06 15:59S 33°24' E 152°02'1521.1
2018-Nov-06 15:17S 33°15' E 152°16'521.4
2018-Nov-06 15:03S 33°12' E 152°21'122.7
2018-Nov-06 15:00S 33°11' E 152°22'1622.8
2018-Nov-06 14:19S 33°02' E 152°37'622.4
2018-Nov-06 14:02S 32°58' E 152°43'020.9
2018-Nov-06 14:01S 32°57' E 152°43'1122.2
2018-Nov-06 13:30S 32°50' E 152°54'1022.9
2018-Nov-06 13:03S 32°44' E 153°04'123.0
2018-Nov-06 13:00S 32°44' E 153°05'1122.7
2018-Nov-06 12:30S 32°37' E 153°16'1022.5
2018-Nov-06 12:03S 32°31' E 153°25'122.1
2018-Nov-06 12:00S 32°30' E 153°26'1121.1
2018-Nov-06 11:30S 32°23' E 153°36'920.9
2018-Nov-06 11:03S 32°18' E 153°45'120.8
2018-Nov-06 11:00S 32°17' E 153°46'1521.0
2018-Nov-06 10:17S 32°08' E 154°00'  

Dump ship's entire track history